Time;durP1;ratioP1;P1;durP2;ratioP2;P2;SDS_P1;SDS_P2;PMS_P1;PMS_P2;Temp;Humidity;BMP_temperature;BMP_pressure;BME280_temperature;BME280_humidity;BME280_pressure;Samples;Min_cycle;Max_cycle;Signal;HPM_P1;HPM_P2
2022/03/27 00:04:31;;;;;;;16.60;10.70;;;;;;;6.65;70.25;99937.45;219506;1276;22544;-69
2022/03/27 00:09:34;;;;;;;16.60;10.60;;;;;;;6.70;70.22;99942.80;219932;1276;22477;-69
2022/03/27 00:14:36;;;;;;;17.10;11.10;;;;;;;6.73;70.32;99950.83;219840;1274;22474;-69
2022/03/27 00:19:38;;;;;;;19.00;10.90;;;;;;;6.75;70.60;99955.34;219556;1276;24237;-69
2022/03/27 00:24:41;;;;;;;17.50;11.50;;;;;;;6.76;70.31;99957.59;219495;1274;24249;-69
2022/03/27 00:29:43;;;;;;;18.90;10.30;;;;;;;6.74;70.17;99962.29;219767;1275;24167;-69
2022/03/27 00:34:45;;;;;;;18.70;10.60;;;;;;;6.69;70.22;99964.80;219663;1276;24348;-69
2022/03/27 00:39:48;;;;;;;16.90;11.00;;;;;;;6.62;70.14;99966.03;219601;1276;22564;-69
2022/03/27 00:44:50;;;;;;;15.10;10.20;;;;;;;6.55;69.88;99978.55;219807;1275;22573;-69
2022/03/27 00:49:52;;;;;;;13.40;8.20;;;;;;;6.47;69.65;99978.33;219722;1274;22952;-69
2022/03/27 00:54:58;;;;;;;10.50;7.00;;;;;;;6.34;67.32;99978.35;219930;1274;25420;-69
2022/03/27 01:00:00;;;;;;;10.10;6.40;;;;;;;6.21;65.99;99976.32;219593;1274;22686;-69
2022/03/27 01:05:13;;;;;;;12.90;6.20;;;;;;;6.10;65.54;99977.63;219685;1276;25854;-70
2022/03/27 01:10:15;;;;;;;6.80;4.60;;;;;;;5.97;64.18;99977.08;219808;1274;25388;-70
2022/03/27 01:15:41;;;;;;;8.90;5.30;;;;;;;5.79;63.51;99979.11;219662;1276;25341;-70
2022/03/27 01:20:44;;;;;;;8.60;5.70;;;;;;;5.59;62.73;99981.58;219575;1276;22961;-69
2022/03/27 01:25:47;;;;;;;9.60;6.60;;;;;;;5.40;62.00;99993.52;219697;1274;25877;-69
2022/03/27 01:30:50;;;;;;;11.20;6.80;;;;;;;5.18;61.35;99994.77;219711;1276;25412;-69
2022/03/27 01:35:52;;;;;;;12.50;7.30;;;;;;;4.97;61.01;100005.75;219631;1276;22618;-69
2022/03/27 01:41:06;;;;;;;12.50;7.60;;;;;;;4.77;60.59;100008.33;219635;1276;25913;-69
2022/03/27 01:46:19;;;;;;;12.70;7.30;;;;;;;4.55;60.17;100009.47;219222;1276;24302;-69
2022/03/27 01:51:25;;;;;;;10.90;6.40;;;;;;;4.35;59.81;100005.44;219333;1276;22671;-69
2022/03/27 01:56:57;;;;;;;8.00;5.50;;;;;;;4.13;59.53;100004.51;219539;1276;22544;-69
2022/03/27 02:02:10;;;;;;;10.70;6.60;;;;;;;3.94;59.21;100006.52;219426;1276;22597;-69
2022/03/27 02:07:13;;;;;;;8.60;5.20;;;;;;;3.80;59.21;100012.40;219485;1276;22988;-69
2022/03/27 02:12:23;;;;;;;9.40;4.70;;;;;;;3.65;59.14;100012.23;219462;1276;22526;-69
2022/03/27 02:17:28;;;;;;;5.80;3.50;;;;;;;3.48;58.87;100018.30;219358;1276;22664;-69
2022/03/27 02:22:31;;;;;;;8.20;4.20;;;;;;;3.32;58.47;100024.77;219554;1276;22531;-69
2022/03/27 02:27:42;;;;;;;7.10;3.60;;;;;;;3.19;58.20;100029.83;219682;1274;22529;-69
2022/03/27 02:32:49;;;;;;;6.60;3.80;;;;;;;3.07;57.98;100036.25;219624;1275;22485;-69
2022/03/27 02:37:53;;;;;;;7.80;3.30;;;;;;;2.98;57.72;100040.44;219760;1276;22688;-69
2022/03/27 02:42:59;;;;;;;7.00;2.80;;;;;;;2.88;57.35;100040.58;219708;1276;22529;-69
2022/03/27 02:48:02;;;;;;;5.90;2.70;;;;;;;2.72;56.62;100046.34;220051;1275;22797;-69
2022/03/27 02:53:21;;;;;;;5.20;2.40;;;;;;;2.55;56.28;100042.27;219903;1274;22698;-69
2022/03/27 02:58:38;;;;;;;7.00;2.40;;;;;;;2.39;55.98;100042.20;219864;1274;22485;-69
2022/03/27 03:03:49;;;;;;;5.50;2.10;;;;;;;2.24;56.08;100048.09;219966;1275;22554;-69
2022/03/27 03:08:59;;;;;;;4.20;2.10;;;;;;;2.10;56.04;100058.36;219722;1274;22551;-69
2022/03/27 03:14:30;;;;;;;5.00;2.20;;;;;;;1.99;55.94;100058.05;219820;1274;24972;-68
2022/03/27 03:19:32;;;;;;;6.80;2.40;;;;;;;1.87;55.91;100058.19;219622;1274;22714;-68
2022/03/27 03:24:35;;;;;;;5.00;2.50;;;;;;;1.72;56.27;100054.09;219645;1274;24179;-68
2022/03/27 03:29:37;;;;;;;3.80;2.70;;;;;;;1.56;56.47;100057.55;219483;1276;24247;-70
2022/03/27 03:34:46;;;;;;;5.60;2.50;;;;;;;1.39;56.68;100055.17;219620;1278;24227;-70
2022/03/27 03:39:48;;;;;;;7.50;2.80;;;;;;;1.22;56.69;100058.88;219645;1276;24372;-68
2022/03/27 03:44:51;;;;;;;6.70;2.60;;;;;;;1.06;56.67;100058.87;219380;1276;24297;-68
2022/03/27 03:49:56;;;;;;;8.90;2.60;;;;;;;0.90;56.86;100061.16;219322;1276;22576;-68
2022/03/27 03:54:59;;;;;;;8.30;3.50;;;;;;;0.74;57.05;100066.26;219566;1276;22485;-68
2022/03/27 04:00:02;;;;;;;8.80;3.40;;;;;;;0.60;57.06;100076.13;219504;1276;22474;-69
2022/03/27 04:05:12;;;;;;;12.90;3.30;;;;;;;0.49;57.34;100084.27;219392;1276;22608;-69
2022/03/27 04:10:15;;;;;;;8.30;3.30;;;;;;;0.41;57.47;100089.75;219655;1276;22491;-69
2022/03/27 04:15:18;;;;;;;8.50;3.40;;;;;;;0.32;57.53;100092.03;219641;1276;24240;-70
2022/03/27 04:20:20;;;;;;;8.50;3.70;;;;;;;0.24;57.75;100098.32;219680;1278;22616;-68
2022/03/27 04:25:23;;;;;;;8.70;3.40;;;;;;;0.17;57.67;100100.65;219565;1274;22617;-69
2022/03/27 04:30:35;;;;;;;9.90;3.70;;;;;;;0.11;57.93;100102.70;219972;1274;22485;-69
2022/03/27 04:35:51;;;;;;;;;;;;;;;;;;;;;
2022/03/27 04:41:23;;;;;;;7.20;3.20;;;;;;;0.05;58.25;100119.59;219872;1274;25299;-69
2022/03/27 04:46:29;;;;;;;9.10;3.80;;;;;;;0.06;58.60;100124.23;220132;1274;24278;-68
2022/03/27 04:51:36;;;;;;;7.20;3.70;;;;;;;0.11;58.74;100128.91;220031;1274;23861;-68
2022/03/27 04:56:38;;;;;;;10.20;3.50;;;;;;;0.16;59.04;100140.77;219804;1274;22533;-69
2022/03/27 05:01:43;;;;;;;13.60;5.50;;;;;;;0.26;58.75;100144.36;220330;1274;22472;-69
2022/03/27 05:07:01;;;;;;;10.10;4.00;;;;;;;0.36;58.84;100148.68;220141;1274;24292;-69
2022/03/27 05:12:08;;;;;;;12.30;4.70;;;;;;;0.49;58.91;100151.52;219851;1274;24252;-68
2022/03/27 05:17:31;;;;;;;11.70;5.00;;;;;;;0.61;58.95;100154.77;220078;1274;24349;-69
2022/03/27 05:22:36;;;;;;;14.20;5.10;;;;;;;0.72;59.06;100160.01;219969;1274;23962;-69
2022/03/27 05:27:51;;;;;;;11.20;5.30;;;;;;;0.80;59.09;100158.91;219676;1274;24147;-68
2022/03/27 05:32:54;;;;;;;11.20;4.40;;;;;;;0.87;59.04;100157.75;219398;1276;23852;-69
2022/03/27 05:37:58;;;;;;;8.10;4.10;;;;;;;0.96;58.90;100162.16;219356;1276;24231;-68
2022/03/27 05:43:01;;;;;;;10.30;4.20;;;;;;;1.07;58.70;100167.12;219498;1276;22558;-68
2022/03/27 05:48:04;;;;;;;11.50;3.80;;;;;;;1.21;58.81;100168.68;219636;1276;22476;-68
2022/03/27 05:53:07;;;;;;;7.90;3.80;;;;;;;1.35;58.62;100177.80;219313;1276;24314;-69
2022/03/27 05:58:20;;;;;;;9.70;4.40;;;;;;;1.49;58.66;100184.96;219599;1276;24265;-69
2022/03/27 06:03:29;;;;;;;10.00;4.30;;;;;;;1.69;59.02;100191.40;219718;1276;24314;-69
2022/03/27 06:08:32;;;;;;;9.00;4.70;;;;;;;1.88;58.89;100204.39;219501;1276;24206;-69
2022/03/27 06:13:34;;;;;;;10.50;4.70;;;;;;;2.08;58.99;100212.53;219686;1276;22573;-70
2022/03/27 06:18:36;;;;;;;10.30;5.00;;;;;;;2.28;59.03;100224.54;219705;1276;24254;-70
2022/03/27 06:23:38;;;;;;;9.50;4.40;;;;;;;2.44;58.67;100233.29;219697;1276;22542;-70
2022/03/27 06:28:42;;;;;;;11.40;5.20;;;;;;;2.56;58.46;100233.52;219912;1274;22709;-70
2022/03/27 06:33:44;;;;;;;13.90;5.40;;;;;;;2.72;58.32;100232.67;219855;1274;22498;-69
2022/03/27 06:38:46;;;;;;;10.00;5.40;;;;;;;2.87;57.78;100232.66;219756;1274;22539;-69
2022/03/27 06:43:49;;;;;;;12.30;5.80;;;;;;;2.99;57.70;100232.88;219795;1274;22518;-69
2022/03/27 06:48:52;;;;;;;13.10;6.30;;;;;;;3.16;57.38;100237.44;219698;1274;22496;-69
2022/03/27 06:54:07;;;;;;;15.80;6.20;;;;;;;3.35;57.33;100232.84;220038;1274;22523;-68
2022/03/27 06:59:14;;;;;;;13.30;5.50;;;;;;;3.60;57.35;100229.52;219666;1274;22706;-69
2022/03/27 07:04:16;;;;;;;12.00;6.00;;;;;;;3.87;56.99;100240.59;220036;1274;22685;-70
2022/03/27 07:09:18;;;;;;;13.70;5.30;;;;;;;4.15;56.57;100240.17;219715;1274;22745;-70
2022/03/27 07:14:25;;;;;;;10.60;4.60;;;;;;;4.35;56.02;100241.92;219547;1276;22582;-70
2022/03/27 07:19:40;;;;;;;10.80;3.80;;;;;;;4.58;55.58;100247.86;220006;1274;22647;-70
2022/03/27 07:25:03;;;;;;;8.30;3.60;;;;;;;4.81;54.74;100252.66;219487;1274;392004;-70
2022/03/27 07:30:06;;;;;;;9.80;4.00;;;;;;;5.01;54.42;100251.72;219821;1276;24231;-70
2022/03/27 07:35:10;;;;;;;7.80;3.20;;;;;;;5.23;54.05;100252.46;219518;1276;22476;-69
2022/03/27 07:40:20;;;;;;;7.40;3.00;;;;;;;5.48;53.19;100252.13;219569;1276;22588;-69
2022/03/27 07:45:33;;;;;;;8.80;3.20;;;;;;;5.62;51.94;100257.48;219546;1275;22474;-70
2022/03/27 07:50:58;;;;;;;6.90;3.30;;;;;;;5.77;51.27;100262.58;219598;1275;23145;-70
2022/03/27 07:56:00;;;;;;;6.20;3.00;;;;;;;6.01;50.58;100265.23;220360;1276;23833;-68
2022/03/27 08:01:03;;;;;;;7.70;2.70;;;;;;;6.24;49.66;100261.89;219799;1276;24142;-68
2022/03/27 08:06:06;;;;;;;3.80;1.50;;;;;;;6.42;48.64;100258.95;219845;1276;23592;-69
2022/03/27 08:11:10;;;;;;;3.90;1.60;;;;;;;6.55;46.97;100256.35;219444;1276;22572;-70
2022/03/27 08:16:12;;;;;;;3.50;1.80;;;;;;;6.63;46.26;100261.77;219274;1276;22596;-70
2022/03/27 08:21:17;;;;;;;5.00;2.10;;;;;;;6.81;45.59;100259.36;219941;1276;22618;-70
2022/03/27 08:31:40;;;;;;;4.00;2.10;;;;;;;7.21;45.08;100257.20;220011;1274;22482;-70
2022/03/27 08:36:58;;;;;;;6.60;2.20;;;;;;;7.32;44.38;100257.61;220046;1274;22626;-70
2022/03/27 08:42:04;;;;;;;3.30;1.60;;;;;;;7.48;43.12;100256.58;220882;1274;24375;-69
2022/03/27 08:47:41;;;;;;;3.00;1.60;;;;;;;7.66;42.76;100259.48;219741;1274;24429;-70
2022/03/27 08:53:12;;;;;;;;;;;;;;;;;;;;;
2022/03/27 08:58:19;;;;;;;2.40;1.50;;;;;;;7.93;41.03;100258.52;219519;1276;22558;-70
2022/03/27 09:03:37;;;;;;;3.50;1.40;;;;;;;8.00;41.06;100245.44;220672;1274;22551;-67
2022/03/27 09:08:56;;;;;;;2.70;1.20;;;;;;;8.17;40.71;100238.42;219979;1274;24205;-69
2022/03/27 09:13:59;;;;;;;2.60;1.10;;;;;;;8.34;40.44;100239.45;219761;1276;25417;-70
2022/03/27 09:19:01;;;;;;;5.00;2.10;;;;;;;8.40;39.15;100233.48;219928;1274;24169;-70
2022/03/27 09:24:12;;;;;;;1.90;1.10;;;;;;;8.45;39.20;100218.15;219974;1275;24952;-69
2022/03/27 09:29:18;;;;;;;3.30;1.90;;;;;;;8.56;39.09;100211.64;219636;1276;22566;-69
2022/03/27 09:35:07;;;;;;;3.90;1.80;;;;;;;8.74;38.48;100206.30;219661;1276;25415;-69
2022/03/27 09:40:12;;;;;;;5.40;1.80;;;;;;;8.83;37.93;100206.05;219189;1275;22702;-69
2022/03/27 09:45:18;;;;;;;3.50;1.80;;;;;;;8.91;37.41;100209.04;219905;1276;22485;-69
2022/03/27 09:50:43;;;;;;;2.60;1.50;;;;;;;9.07;37.27;100206.61;219795;1276;24330;-69
2022/03/27 09:55:50;;;;;;;7.10;2.00;;;;;;;9.00;36.23;100195.61;219635;1276;22808;-69
2022/03/27 10:01:16;;;;;;;3.80;1.50;;;;;;;9.06;36.24;100196.88;219545;1276;22520;-69
2022/03/27 10:06:31;;;;;;;3.70;1.90;;;;;;;9.20;35.97;100194.48;219693;1275;24232;-69
2022/03/27 10:11:40;;;;;;;2.00;1.40;;;;;;;9.36;35.73;100190.79;219860;1276;22478;-69
2022/03/27 10:16:47;;;;;;;4.40;1.60;;;;;;;9.57;35.44;100187.45;220026;1275;24364;-70
2022/03/27 10:21:52;;;;;;;3.20;1.70;;;;;;;9.63;34.82;100184.75;219679;1276;25396;-69
2022/03/27 10:27:02;;;;;;;1.80;1.30;;;;;;;9.66;34.65;100176.06;220079;1274;22629;-70
2022/03/27 10:32:10;;;;;;;2.60;1.30;;;;;;;9.78;34.66;100170.33;220036;1276;24368;-69
2022/03/27 10:37:22;;;;;;;3.30;1.50;;;;;;;9.90;34.00;100162.23;219844;1274;24241;-70
2022/03/27 10:42:59;;;;;;;3.10;2.00;;;;;;;9.94;33.57;100164.00;219776;1274;24125;-70
2022/03/27 10:48:11;;;;;;;3.20;1.80;;;;;;;10.00;33.28;100148.80;219994;1274;22596;-69
2022/03/27 10:53:33;;;;;;;3.30;1.70;;;;;;;10.11;33.10;100142.45;220016;1274;22617;-70
2022/03/27 10:58:40;;;;;;;2.20;1.10;;;;;;;10.28;33.44;100135.39;220204;1274;25200;-70
2022/03/27 11:04:04;;;;;;;2.10;1.30;;;;;;;10.51;33.23;100123.74;220050;1274;25381;-69
2022/03/27 11:09:13;;;;;;;4.30;2.80;;;;;;;10.73;33.13;100125.16;219812;1274;23108;-70
2022/03/27 11:14:51;;;;;;;3.70;1.60;;;;;;;10.93;32.54;100114.52;220632;1274;24412;-69
2022/03/27 11:19:54;;;;;;;2.40;1.10;;;;;;;11.10;32.73;100105.58;219853;1274;23139;-69
2022/03/27 11:25:25;;;;;;;2.30;1.40;;;;;;;11.32;32.51;100098.25;220040;1274;25491;-70
2022/03/27 11:30:32;;;;;;;6.20;3.70;;;;;;;11.39;31.73;100098.34;219826;1276;22476;-70
2022/03/27 11:35:39;;;;;;;3.00;2.10;;;;;;;11.27;31.24;100091.52;219848;1276;22532;-70
2022/03/27 11:40:42;;;;;;;5.40;2.00;;;;;;;11.33;31.16;100091.27;219547;1276;22613;-70
2022/03/27 11:45:46;;;;;;;3.80;2.00;;;;;;;11.33;31.04;100084.35;219527;1276;22619;-70
2022/03/27 11:51:16;;;;;;;2.90;1.90;;;;;;;11.36;31.23;100077.77;219806;1276;22750;-69
2022/03/27 11:56:53;;;;;;;4.60;2.50;;;;;;;11.44;30.84;100066.27;219880;1273;22700;-69
2022/03/27 12:02:14;;;;;;;3.40;2.00;;;;;;;11.53;30.92;100062.81;219621;1276;22543;-70
2022/03/27 12:07:16;;;;;;;3.30;1.90;;;;;;;11.67;30.93;100058.18;219591;1276;23989;-70
2022/03/27 12:12:20;;;;;;;3.40;2.00;;;;;;;11.73;30.71;100053.32;220457;1276;22700;-69
2022/03/27 12:17:31;;;;;;;3.20;2.00;;;;;;;11.79;31.04;100049.20;220390;1276;22569;-70
2022/03/27 12:22:37;;;;;;;3.20;2.20;;;;;;;11.78;30.20;100045.34;220440;1276;22570;-69
2022/03/27 12:33:05;;;;;;;4.30;2.30;;;;;;;11.94;30.35;100026.31;219950;1274;22531;-69
2022/03/27 12:38:08;;;;;;;3.50;2.10;;;;;;;11.96;29.99;100019.13;219633;1274;22557;-70
2022/03/27 12:43:14;;;;;;;5.50;2.40;;;;;;;11.98;30.31;100011.23;220028;1274;22472;-70
2022/03/27 12:48:20;;;;;;;4.60;2.20;;;;;;;12.21;30.46;100013.34;219695;1274;22534;-70
2022/03/27 12:53:30;;;;;;;5.70;2.50;;;;;;;12.30;30.24;100011.09;219699;1274;22785;-70
2022/03/27 12:58:32;;;;;;;5.00;2.80;;;;;;;12.35;30.04;100006.89;219985;1274;24419;-70
2022/03/27 13:03:36;;;;;;;7.00;3.40;;;;;;;12.43;30.04;100007.11;219930;1274;22693;-69
2022/03/27 13:08:45;;;;;;;5.00;2.50;;;;;;;12.53;29.84;100003.45;219894;1274;28330;-70
2022/03/27 13:14:01;;;;;;;5.50;2.40;;;;;;;12.57;28.99;100000.96;219900;1274;25324;-69
2022/03/27 13:19:14;;;;;;;4.60;2.30;;;;;;;12.48;28.78;99992.69;219724;1274;22528;-70
2022/03/27 13:24:18;;;;;;;3.70;2.10;;;;;;;12.43;28.75;99990.61;220120;1274;24200;-71
2022/03/27 13:29:22;;;;;;;5.90;2.60;;;;;;;12.39;28.57;99984.21;220382;1276;22543;-70
2022/03/27 13:34:26;;;;;;;3.40;2.10;;;;;;;12.45;28.93;99975.88;220780;1275;23008;-70
2022/03/27 13:39:29;;;;;;;4.10;2.10;;;;;;;12.59;28.92;99966.61;219607;1276;25292;-69
2022/03/27 13:44:35;;;;;;;3.70;2.20;;;;;;;12.68;28.91;99960.23;219611;1276;24271;-69
2022/03/27 13:49:42;;;;;;;4.00;2.40;;;;;;;12.80;28.76;99953.04;219548;1276;25890;-69
2022/03/27 13:54:44;;;;;;;4.00;2.50;;;;;;;12.84;28.57;99948.90;219815;1276;22720;-70
2022/03/27 13:59:47;;;;;;;3.80;2.00;;;;;;;12.88;28.59;99943.77;219815;1276;22575;-70
2022/03/27 14:04:51;;;;;;;3.30;2.00;;;;;;;12.82;28.31;99939.39;219543;1276;23499;-70
2022/03/27 14:09:53;;;;;;;4.50;2.50;;;;;;;12.84;28.31;99930.71;219862;1276;23758;-69
2022/03/27 14:15:06;;;;;;;4.00;2.40;;;;;;;12.91;28.61;99924.40;219536;1275;23985;-70
2022/03/27 14:20:22;;;;;;;4.10;2.00;;;;;;;12.98;28.36;99917.32;219585;1276;22777;-68
2022/03/27 14:25:37;;;;;;;3.00;2.30;;;;;;;12.93;28.14;99915.98;219691;1274;22644;-69
2022/03/27 14:31:03;;;;;;;4.00;2.10;;;;;;;12.88;27.91;99911.88;220009;1274;22616;-70
2022/03/27 14:36:09;;;;;;;3.90;2.10;;;;;;;12.75;27.74;99915.75;219840;1274;25967;-69
2022/03/27 14:41:11;;;;;;;4.00;2.30;;;;;;;12.62;27.81;99910.15;219741;1275;22555;-70
2022/03/27 14:46:14;;;;;;;5.20;2.30;;;;;;;12.51;27.73;99907.27;219658;1274;22579;-70
2022/03/27 14:51:20;;;;;;;4.30;2.30;;;;;;;12.42;27.69;99904.89;219683;1274;22578;-70
2022/03/27 14:56:35;;;;;;;5.60;1.90;;;;;;;12.31;27.53;99902.42;219891;1274;22572;-69
2022/03/27 15:01:38;;;;;;;5.90;2.40;;;;;;;12.12;27.21;99895.64;219821;1274;22559;-69
2022/03/27 15:06:47;;;;;;;4.70;2.00;;;;;;;12.00;27.32;99891.31;219632;1274;23862;-69
2022/03/27 15:11:54;;;;;;;;;;;;;;;11.98;27.39;99889.70;219952;1274;22552;-69
2022/03/27 15:16:58;;;;;;;4.50;2.30;;;;;;;11.98;27.35;99885.29;220038;1274;23805;-69
2022/03/27 15:22:22;;;;;;;4.10;2.10;;;;;;;11.95;27.43;99882.13;219840;1274;22615;-69
2022/03/27 15:27:32;;;;;;;4.90;2.60;;;;;;;11.93;27.37;99878.79;219408;1276;22643;-70
2022/03/27 15:32:44;;;;;;;2.50;1.80;;;;;;;11.96;27.48;99875.68;219542;1276;23803;-70
2022/03/27 15:37:48;;;;;;;4.00;2.10;;;;;;;11.98;27.57;99868.42;220664;1276;22480;-69
2022/03/27 15:42:54;;;;;;;4.70;2.40;;;;;;;11.97;27.70;99863.70;219721;1275;24315;-70
2022/03/27 15:48:01;;;;;;;4.90;2.30;;;;;;;11.99;27.75;99855.97;219518;1276;24339;-70
2022/03/27 15:53:05;;;;;;;4.10;1.90;;;;;;;12.05;27.89;99855.59;220725;1275;23685;-72
2022/03/27 15:58:08;;;;;;;5.30;2.30;;;;;;;12.06;27.74;99855.30;219598;1276;25342;-69
2022/03/27 16:03:10;;;;;;;4.40;2.20;;;;;;;12.00;27.77;99850.81;219494;1276;24203;-70
2022/03/27 16:08:14;;;;;;;6.70;4.10;;;;;;;11.91;27.63;99844.09;219205;1276;22489;-70
2022/03/27 16:13:16;;;;;;;6.90;3.40;;;;;;;11.80;27.88;99839.05;219448;1276;22577;-69
2022/03/27 16:18:19;;;;;;;4.30;2.70;;;;;;;11.68;27.88;99831.22;219427;1276;22838;-70
2022/03/27 16:23:26;;;;;;;3.50;2.10;;;;;;;11.55;27.87;99834.81;219517;1276;23972;-70
2022/03/27 16:28:28;;;;;;;5.50;2.30;;;;;;;11.43;28.08;99828.38;219541;1276;22481;-68
2022/03/27 16:33:32;;;;;;;4.40;2.30;;;;;;;11.31;28.02;99824.89;219657;1274;22573;-70
2022/03/27 16:38:42;;;;;;;5.40;2.20;;;;;;;11.15;28.45;99821.76;219838;1275;22702;-69
2022/03/27 16:44:05;;;;;;;5.00;2.20;;;;;;;10.96;28.67;99816.48;219844;1275;22563;-71
2022/03/27 16:49:08;;;;;;;4.10;2.40;;;;;;;10.78;29.06;99810.64;220229;1275;22737;-69
2022/03/27 16:54:10;;;;;;;3.30;1.90;;;;;;;10.58;29.21;99808.44;219995;1274;22673;-70
2022/03/27 16:59:16;;;;;;;4.20;2.30;;;;;;;10.36;29.44;99805.02;220708;1274;22926;-70
2022/03/27 17:04:18;;;;;;;3.80;2.20;;;;;;;10.12;29.83;99804.78;220764;1275;23093;-69
2022/03/27 17:09:21;;;;;;;6.20;2.40;;;;;;;9.87;30.04;99804.20;219963;1275;22609;-70
2022/03/27 17:14:23;;;;;;;5.40;2.00;;;;;;;9.60;30.10;99802.89;220722;1275;22712;-70
2022/03/27 17:19:25;;;;;;;5.20;2.40;;;;;;;9.35;30.29;99799.06;219721;1275;24207;-70
2022/03/27 17:24:30;;;;;;;3.80;2.10;;;;;;;9.10;30.21;99800.92;219948;1275;23858;-71
2022/03/27 17:29:46;;;;;;;4.60;2.60;;;;;;;8.87;30.66;99806.75;220517;1274;24137;-71
2022/03/27 17:34:52;;;;;;;5.30;2.50;;;;;;;8.62;31.15;99807.97;219721;1276;22716;-70
2022/03/27 17:39:54;;;;;;;2.60;2.00;;;;;;;8.41;31.29;99814.87;219797;1276;22538;-70
2022/03/27 17:44:57;;;;;;;4.00;2.20;;;;;;;8.20;31.40;99814.96;220438;1276;23868;-71
2022/03/27 17:49:59;;;;;;;6.60;2.80;;;;;;;8.00;31.75;99813.08;219726;1275;23123;-72
2022/03/27 17:55:02;;;;;;;5.90;3.10;;;;;;;7.80;32.14;99812.22;220721;1276;23592;-71
2022/03/27 18:00:07;;;;;;;9.90;4.60;;;;;;;7.63;32.71;99812.17;220420;1276;23967;-72
2022/03/27 18:05:10;;;;;;;18.40;9.60;;;;;;;7.45;33.16;99812.53;220444;1276;22535;-70
2022/03/27 18:10:16;;;;;;;27.40;14.10;;;;;;;7.29;33.08;99818.13;220476;1276;22480;-71
2022/03/27 18:15:22;;;;;;;20.30;11.10;;;;;;;7.14;33.51;99819.70;220332;1276;24241;-71
2022/03/27 18:20:27;;;;;;;25.90;12.10;;;;;;;7.01;33.45;99826.60;220349;1276;22651;-70
2022/03/27 18:25:30;;;;;;;22.40;11.80;;;;;;;6.87;33.54;99823.21;219820;1275;22492;-69
2022/03/27 18:30:35;;;;;;;23.40;11.80;;;;;;;6.75;33.64;99822.77;219695;1274;23705;-70
2022/03/27 18:35:37;;;;;;;21.10;11.40;;;;;;;6.62;33.76;99820.39;220091;1274;22485;-70
2022/03/27 18:40:39;;;;;;;21.20;9.80;;;;;;;6.51;34.14;99823.21;219944;1275;22471;-70
2022/03/27 18:45:45;;;;;;;17.50;9.60;;;;;;;6.39;34.63;99820.08;219848;1274;22708;-69
2022/03/27 18:50:51;;;;;;;18.00;10.40;;;;;;;6.28;35.59;99820.17;220011;1274;24329;-69
2022/03/27 18:55:54;;;;;;;20.40;11.20;;;;;;;6.17;35.49;99824.41;219923;1274;25860;-71
2022/03/27 19:00:59;;;;;;;22.00;10.80;;;;;;;6.10;35.24;99825.17;220686;1274;24191;-70
2022/03/27 19:06:09;;;;;;;20.70;11.30;;;;;;;6.04;35.65;99822.95;219959;1275;22932;-69
2022/03/27 19:11:12;;;;;;;39.80;21.30;;;;;;;5.95;35.59;99814.30;219606;1274;25315;-70
2022/03/27 19:16:16;;;;;;;29.50;15.30;;;;;;;5.87;35.87;99809.84;219904;1276;22581;-70
2022/03/27 19:21:38;;;;;;;32.70;18.90;;;;;;;5.75;35.95;99798.83;219856;1276;22615;-69
2022/03/27 19:26:40;;;;;;;48.30;24.50;;;;;;;5.62;36.28;99783.35;220434;1276;259176;-70
2022/03/27 19:31:43;;;;;;;66.30;32.60;;;;;;;5.49;36.51;99790.42;220181;1276;22622;-69
2022/03/27 19:36:49;;;;;;;70.00;34.00;;;;;;;5.37;36.83;99791.90;219682;1276;22935;-72
2022/03/27 19:41:52;;;;;;;66.40;34.20;;;;;;;5.25;37.10;99783.26;220629;1276;23138;-70
2022/03/27 19:46:54;;;;;;;70.20;35.30;;;;;;;5.11;37.35;99781.16;219762;1276;22533;-70
2022/03/27 19:51:57;;;;;;;67.40;32.60;;;;;;;5.00;37.51;99793.06;219604;1276;24793;-70
2022/03/27 19:56:59;;;;;;;63.90;31.80;;;;;;;4.89;37.69;99785.82;219668;1276;22600;-70
2022/03/27 20:02:01;;;;;;;55.40;27.20;;;;;;;4.82;37.85;99786.41;219644;1276;25214;-70
2022/03/27 20:07:04;;;;;;;56.30;27.40;;;;;;;4.74;37.98;99783.98;219810;1276;24195;-70
2022/03/27 20:12:09;;;;;;;52.00;26.40;;;;;;;4.67;38.24;99782.36;219670;1276;22475;-69
2022/03/27 20:17:12;;;;;;;52.40;26.00;;;;;;;4.60;38.46;99782.44;219602;1276;22478;-69
2022/03/27 20:22:14;;;;;;;54.70;26.90;;;;;;;4.54;38.59;99779.14;219502;1276;22680;-70
2022/03/27 20:27:17;;;;;;;59.10;27.50;;;;;;;4.47;38.81;99776.24;219867;1275;25268;-70
2022/03/27 20:32:19;;;;;;;65.70;29.10;;;;;;;4.39;39.10;99772.95;219467;1276;23826;-69
2022/03/27 20:37:22;;;;;;;61.10;29.10;;;;;;;4.33;39.29;99774.95;220144;1274;22615;-70
2022/03/27 20:42:25;;;;;;;65.80;30.40;;;;;;;4.26;39.35;99772.00;219636;1274;22546;-70
2022/03/27 20:47:28;;;;;;;63.60;31.00;;;;;;;4.20;39.55;99775.21;219924;1274;22631;-70
2022/03/27 20:52:30;;;;;;;62.60;30.90;;;;;;;4.13;39.68;99775.05;219994;1274;25266;-69
2022/03/27 20:57:32;;;;;;;53.20;28.10;;;;;;;4.08;39.83;99771.39;219765;1275;25229;-69
2022/03/27 21:02:35;;;;;;;56.80;28.30;;;;;;;4.03;40.02;99767.12;219964;1274;24271;-71
2022/03/27 21:07:38;;;;;;;53.70;26.60;;;;;;;3.97;40.37;99764.61;219715;1274;22577;-69
2022/03/27 21:12:40;;;;;;;51.60;25.80;;;;;;;3.91;40.59;99761.89;220034;1274;22771;-69
2022/03/27 21:17:42;;;;;;;52.00;26.40;;;;;;;3.87;40.69;99760.98;219991;1274;22709;-69
2022/03/27 21:22:44;;;;;;;51.80;26.00;;;;;;;3.83;40.80;99761.97;219855;1275;22607;-69
2022/03/27 21:27:49;;;;;;;51.30;25.90;;;;;;;3.82;40.90;99759.43;219877;1275;24165;-69
2022/03/27 21:32:51;;;;;;;54.30;25.00;;;;;;;3.78;41.31;99757.48;219718;1276;23808;-70
2022/03/27 21:37:54;;;;;;;54.90;27.30;;;;;;;3.74;41.42;99753.02;219634;1276;24273;-70
2022/03/27 21:42:56;;;;;;;58.90;29.00;;;;;;;3.72;41.32;99753.05;219731;1276;24208;-69
2022/03/27 21:47:59;;;;;;;63.50;29.70;;;;;;;3.66;41.42;99755.51;219743;1276;22614;-69
2022/03/27 21:53:01;;;;;;;70.20;32.10;;;;;;;3.59;41.64;99749.65;219501;1276;24418;-69
2022/03/27 21:58:08;;;;;;;70.70;33.90;;;;;;;3.53;41.81;99743.80;219630;1276;23681;-70
2022/03/27 22:03:10;;;;;;;75.60;36.30;;;;;;;3.46;42.19;99739.17;219433;1276;22461;-70
2022/03/27 22:08:13;;;;;;;95.70;41.10;;;;;;;3.39;42.38;99736.10;219415;1276;25446;-71
2022/03/27 22:13:15;;;;;;;100.60;43.70;;;;;;;3.32;42.58;99736.08;219475;1276;22539;-70
2022/03/27 22:18:18;;;;;;;97.70;44.50;;;;;;;3.24;42.77;99738.75;219432;1276;23503;-69
2022/03/27 22:23:20;;;;;;;106.60;46.60;;;;;;;3.17;42.92;99739.41;219620;1276;22491;-70
2022/03/27 22:28:24;;;;;;;101.00;44.70;;;;;;;3.11;43.09;99735.23;220034;1272;25939;-70
2022/03/27 22:33:38;;;;;;;107.20;45.20;;;;;;;3.05;42.87;99732.05;220050;1274;22709;-70
2022/03/27 22:38:41;;;;;;;104.50;44.30;;;;;;;2.98;43.32;99722.54;220851;1274;22475;-70
2022/03/27 22:43:45;;;;;;;102.20;43.90;;;;;;;2.92;43.29;99719.16;220086;1274;25337;-70
2022/03/27 22:48:57;;;;;;;95.50;41.50;;;;;;;2.87;43.35;99718.41;219719;1274;25315;-69
2022/03/27 22:53:59;;;;;;;87.20;38.80;;;;;;;2.84;43.49;99713.60;219807;1274;22562;-69
2022/03/27 22:59:02;;;;;;;86.70;37.90;;;;;;;2.83;43.44;99709.54;220609;1274;25341;-69
2022/03/27 23:04:05;;;;;;;81.80;36.70;;;;;;;2.81;43.35;99702.26;219673;1274;22559;-68
2022/03/27 23:09:08;;;;;;;82.40;38.30;;;;;;;2.78;43.54;99700.96;219897;1274;25370;-69
2022/03/27 23:14:10;;;;;;;83.50;36.70;;;;;;;2.75;43.49;99695.45;219598;1274;22730;-69
2022/03/27 23:19:12;;;;;;;86.00;37.60;;;;;;;2.71;43.63;99691.33;219963;1274;23844;-69
2022/03/27 23:24:20;;;;;;;85.10;37.10;;;;;;;2.67;43.67;99685.61;220774;1274;22692;-69
2022/03/27 23:29:23;;;;;;;73.20;33.60;;;;;;;2.62;43.70;99679.99;219515;1278;24207;-68
2022/03/27 23:34:25;;;;;;;81.60;36.00;;;;;;;2.58;43.98;99676.23;219346;1277;22700;-70
2022/03/27 23:39:27;;;;;;;90.10;37.70;;;;;;;2.53;44.16;99669.84;219516;1277;24231;-69
2022/03/27 23:44:30;;;;;;;90.00;38.20;;;;;;;2.51;44.50;99662.97;219574;1278;23598;-70
2022/03/27 23:49:40;;;;;;;90.60;39.10;;;;;;;2.48;44.61;99651.67;219383;1277;22472;-70
2022/03/27 23:55:02;;;;;;;78.20;35.10;;;;;;;2.45;44.75;99645.67;219564;1275;23673;-70
